Data for 11/25/2007

Time Sea-Level Adjusted Pressure Absolute Pressure Temperature Relative Humidity Dew Point   
(mb) (inHg) (mb) (inHg) (C) (F) (%) (C) (F)
00:05 1014 29.94 843 24.89 -0.8 30.6 65 -6.5 20.3
00:10 1014 29.94 843 24.89 -1 30.1 68 -6.2 20.9
00:15 1014 29.94 843 24.89 -1 30.3 61 -7.7 18.2
00:20 1014 29.94 843 24.89 -0.4 31.2 52 -9 15.7
00:25 1014 29.94 843 24.89 -0.1 31.9 54 -8.2 17.2
00:30 1014 29.94 843 24.89 0.1 32.1 52 -8.6 16.5
00:35 1014 29.94 843 24.89 0.1 32.2 53 -8.4 16.9
00:40 1014 29.94 843 24.89 -0.2 31.7 52 -8.9 16.1
00:45 1014 29.94 843 24.89 -0.3 31.4 54 -8.6 16.5
00:50 1014 29.94 843 24.89 -0.6 30.9 54 -8.7 16.3
00:55 1014 29.94 843 24.89 -0.7 30.7 54 -8.9 16
01:00 1014 29.94 843 24.89 -0.7 30.7 54 -8.9 16
01:05 1014 29.94 843 24.89 -0.8 30.6 55 -8.7 16.3
01:10 1014 29.94 843 24.89 -0.9 30.5 56 -8.6 16.5
01:15 1014 29.94 843 24.89 -1 30.2 56 -8.6 16.5
01:20 1014 29.94 843 24.89 -1.6 29.2 58 -8.7 16.3
01:25 1014 29.94 843 24.89 -1.2 29.9 55 -9.2 15.5
01:30 1014 29.94 843 24.89 -0.7 30.7 56 -8.5 16.6
01:35 1014 29.94 843 24.89 -0.8 30.5 55 -8.7 16.3
01:40 1014 29.94 843 24.89 -1.1 30.1 56 -8.7 16.4
01:45 1014 29.94 844 24.92 -1.1 29.9 58 -8.4 16.9
01:50 1014 29.94 844 24.92 -1.3 29.6 58 -8.6 16.5
01:55 1014 29.94 844 24.92 -1.2 29.9 56 -8.9 16
02:00 1014 29.94 844 24.92 -1 30.3 55 -8.9 16
02:05 1015 29.97 844 24.92 -0.7 30.7 55 -8.6 16.5
02:10 1015 29.97 844 24.92 -0.5 31 52 -9.2 15.4
02:15 1015 29.97 844 24.92 -0.5 31.1 55 -8.6 16.6
02:20 1015 29.97 844 24.92 -0.5 31 51 -9.4 15.1
02:25 1015 29.97 844 24.92 -0.3 31.5 53 -8.8 16.2
02:30 1015 29.97 844 24.92 0 32.1 52 -8.6 16.5
02:35 1015 29.97 844 24.92 0.2 32.3 52 -8.4 16.8
02:40 1015 29.97 844 24.92 0.2 32.3 52 -8.6 16.5
02:45 1015 29.97 844 24.92 0.3 32.5 51 -8.8 16.2
02:50 1015 29.97 844 24.92 0.3 32.6 51 -8.6 16.4
02:55 1015 29.97 844 24.92 0.3 32.5 52 -8.4 16.8
03:00 1015 29.97 844 24.92 0.2 32.3 54 -8.1 17.4
03:05 1015 29.97 844 24.92 0 32 54 -8.2 17.2
03:10 1015 29.97 844 24.92 -0 31.9 55 -8 17.6
03:15 1015 29.97 844 24.92 -0.1 31.7 56 -8 17.7
03:20 1015 29.97 844 24.92 -0.3 31.5 57 -7.9 17.9
03:25 1015 29.97 844 24.92 -0.4 31.4 57 -7.9 17.7
03:30 1015 29.97 845 24.95 -0.4 31.2 57 -7.9 17.8
03:35 1015 29.97 845 24.95 -0.5 31.1 58 -7.9 17.9
03:40 1015 29.97 845 24.95 -0.6 30.9 58 -7.8 18
03:45 1015 29.97 845 24.95 -0.6 30.9 59 -7.7 18.2
03:50 1016 30 845 24.95 -0.6 30.9 59 -7.7 18.2
03:55 1016 30 845 24.95 -0.9 30.5 59 -7.8 18
04:00 1016 30 845 24.95 -1.2 29.9 61 -7.7 18.1
04:05 1016 30 845 24.95 -1.2 29.9 60 -8 17.6
04:10 1016 30 845 24.95 -0.9 30.4 58 -8.1 17.4
04:15 1016 30 845 24.95 -0.7 30.8 59 -7.7 18.1
04:20 1016 30 845 24.95 -0.6 31 56 -8.3 17
04:25 1016 30 845 24.95 -0.6 31 57 -8.1 17.4
04:30 1016 30 845 24.95 -0.6 30.9 57 -8.1 17.4
04:35 1016 30 845 24.95 -0.5 31.1 55 -8.4 16.9
04:40 1016 30 845 24.95 -0.5 31.1 56 -8.2 17.3
04:45 1016 30 845 24.95 -0.5 31.1 58 -7.9 17.8
04:50 1016 30 845 24.95 -0.6 30.8 58 -7.9 17.8
04:55 1016 30 845 24.95 -0.4 31.2 56 -8.1 17.4
05:00 1016 30 845 24.95 -0.4 31.3 58 -7.6 18.3
05:05 1016 30 845 24.95 -0.7 30.8 60 -7.5 18.5
05:10 1016 30 845 24.95 -0.7 30.7 60 -7.6 18.3
05:15 1016 30 846 24.98 -0.8 30.6 60 -7.6 18.3
05:20 1016 30 846 24.98 -0.9 30.3 61 -7.6 18.3
05:25 1016 30 846 24.98 -1.1 30 61 -7.7 18.1
05:30 1016 30 846 24.98 -1.3 29.7 61 -7.9 17.8
05:35 1017 30.03 846 24.98 -1.5 29.2 65 -7.4 18.7
05:40 1017 30.03 846 24.98 -1.9 28.5 70 -6.7 20
05:45 1017 30.03 846 24.98 -2.2 28 71 -6.8 19.8
05:50 1017 30.03 846 24.98 -2.2 28.1 70 -7 19.4
05:55 1017 30.03 846 24.98 -2.1 28.2 70 -6.9 19.6
06:00 1017 30.03 846 24.98 -1.9 28.6 70 -6.6 20.1
06:05 1017 30.03 846 24.98 -1.9 28.6 69 -6.9 19.6
06:10 1017 30.03 846 24.98 -1.8 28.8 65 -7.4 18.6
06:15 1017 30.03 846 24.98 -1.3 29.6 58 -8.5 16.7
06:20 1017 30.03 846 24.98 -0.8 30.5 58 -8.1 17.4
06:25 1017 30.03 846 24.98 -0.9 30.3 59 -8.1 17.5
06:30 1017 30.03 846 24.98 -0.9 30.4 59 -7.9 17.8
06:35 1017 30.03 846 24.98 -1.4 29.4 61 -8 17.6
06:40 1016 30 846 24.98 -1.3 29.6 60 -8 17.6
06:45 1016 30 846 24.98 -1.2 29.9 60 -7.9 17.7
06:50 1016 30 846 24.98 -1.5 29.3 63 -7.7 18.2
06:55 1016 30 846 24.98 -1.7 28.9 63 -7.8 17.9
07:00 1017 30.03 846 24.98 -1.2 29.8 62 -7.7 18.2
07:05 1017 30.03 846 24.98 -1.1 30.1 62 -7.5 18.6
07:10 1017 30.03 846 24.98 -1.1 30 62 -7.5 18.5
07:15 1017 30.03 846 24.98 -1.2 29.9 63 -7.4 18.6
07:20 1017 30.03 846 24.98 -1.2 29.8 63 -7.5 18.6
07:25 1017 30.03 846 24.98 -1 30.3 61 -7.5 18.5
07:30 1017 30.03 846 24.98 -0.9 30.4 62 -7.3 18.9
07:35 1017 30.03 846 24.98 -1 30.3 62 -7.4 18.7
07:40 1017 30.03 846 24.98 -0.9 30.4 62 -7.4 18.8
07:45 1017 30.03 846 24.98 -0.9 30.5 61 -7.4 18.7
07:50 1017 30.03 846 24.98 -0.9 30.3 62 -7.3 18.9
07:55 1017 30.03 846 24.98 -0.9 30.3 62 -7.4 18.7
08:00 1017 30.03 846 24.98 -0.8 30.5 61 -7.3 18.8
08:05 1017 30.03 846 24.98 -1 30.3 61 -7.5 18.5
08:10 1017 30.03 846 24.98 -1 30.2 62 -7.4 18.6
08:15 1017 30.03 846 24.98 -0.8 30.6 60 -7.5 18.4
08:20 1017 30.03 846 24.98 -0.6 30.9 62 -7 19.4
08:25 1017 30.03 846 24.98 -1.1 30.1 61 -7.7 18.2
08:30 1017 30.03 846 24.98 -0.3 31.4 59 -7.5 18.5
08:35 1017 30.03 846 24.98 -0.1 31.9 59 -7.1 19.1
08:40 1017 30.03 846 24.98 0.1 32.2 57 -7.3 18.8
08:45 1017 30.03 846 24.98 -0.2 31.7 60 -7.1 19.2
08:50 1017 30.03 846 24.98 -0.5 31 60 -7.4 18.6
08:55 1017 30.03 846 24.98 0.2 32.3 56 -7.6 18.3
09:00 1017 30.03 846 24.98 1.1 34 52 -7.6 18.4
09:05 1017 30.03 846 24.98 1.6 34.8 53 -7.1 19.3
09:10 1017 30.03 846 24.98 1.4 34.5 54 -7 19.3
09:15 1017 30.03 846 24.98 1.2 34.1 55 -7 19.5
09:20 1017 30.03 846 24.98 1.3 34.3 54 -7.1 19.3
09:25 1017 30.03 847 25.01 1.4 34.6 54 -7 19.4
09:30 1017 30.03 847 25.01 1.6 34.8 53 -7.1 19.2
09:35 1017 30.03 847 25.01 1.5 34.6 55 -6.7 19.9
09:40 1017 30.03 847 25.01 1.1 34 57 -6.5 20.3
09:45 1017 30.03 847 25.01 0.8 33.4 58 -6.7 20
09:50 1017 30.03 847 25.01 1.1 34 54 -7.1 19.3
09:55 1017 30.03 847 25.01 1.6 34.9 53 -7 19.3
10:00 1017 30.03 847 25.01 1.9 35.4 51 -7.1 19.2
10:05 1018 30.06 847 25.01 2.4 36.3 49 -7.2 19
10:10 1018 30.06 847 25.01 2.7 36.9 49 -6.9 19.5
10:15 1018 30.06 847 25.01 2.7 36.8 49 -7 19.5
10:20 1018 30.06 847 25.01 2.5 36.5 50 -6.9 19.6
10:25 1018 30.06 847 25.01 2.5 36.5 50 -6.9 19.5
10:30 1018 30.06 847 25.01 2.9 37.2 47 -7.2 19
10:35 1018 30.06 847 25.01 3 37.4 49 -6.8 19.8
10:40 1018 30.06 847 25.01 2.9 37.3 49 -6.8 19.8
10:45 1018 30.06 847 25.01 2.7 36.9 49 -7 19.4
10:50 1018 30.06 847 25.01 3 37.3 48 -7.1 19.3
10:55 1018 30.06 847 25.01 3 37.4 49 -6.8 19.8
11:00 1018 30.06 847 25.01 2.9 37.3 49 -6.8 19.7
11:05 1018 30.06 847 25.01 2.8 37.1 50 -6.7 20
11:10 1018 30.06 847 25.01 2.4 36.4 49 -7.1 19.2
11:15 1017 30.03 847 25.01 2.2 35.9 50 -7.1 19.3
11:20 1017 30.03 847 25.01 2.3 36.1 50 -7.1 19.2
11:25 1017 30.03 847 25.01 2.8 37 49 -7 19.4
11:30 1017 30.03 847 25.01 2.7 36.8 49 -6.9 19.6
11:35 1017 30.03 846 24.98 2.1 35.9 51 -6.9 19.6
11:40 1017 30.03 846 24.98 1.7 35.1 52 -7.1 19.3
11:45 1017 30.03 846 24.98 1.9 35.5 51 -7.1 19.2
11:50 1017 30.03 846 24.98 2.1 35.8 51 -6.9 19.6
11:55 1017 30.03 846 24.98 2.5 36.5 49 -7.3 18.9
12:00 1017 30.03 846 24.98 2.6 36.6 48 -7.3 18.8
12:05 1017 30.03 846 24.98 2.3 36.1 49 -7.3 18.9
12:10 1017 30.03 846 24.98 2.7 36.8 49 -7.1 19.2
12:15 1017 30.03 846 24.98 2.8 37 49 -7 19.5
12:20 1017 30.03 846 24.98 2.7 36.9 49 -7.1 19.3
12:25 1017 30.03 846 24.98 2.5 36.5 49 -7.3 18.9
12:30 1017 30.03 846 24.98 2.8 37.1 48 -7.2 19.1
12:35 1017 30.03 846 24.98 2.5 36.6 49 -7 19.3
12:40 1017 30.03 846 24.98 2.4 36.3 50 -7.1 19.2
12:45 1017 30.03 846 24.98 2.7 36.8 49 -7.1 19.2
12:50 1017 30.03 846 24.98 2.1 35.7 49 -7.6 18.4
12:55 1017 30.03 846 24.98 2.1 35.8 50 -7.3 18.8
13:00 1017 30.03 846 24.98 2 35.6 50 -7.4 18.7
13:05 1017 30.03 846 24.98 2.2 36 49 -7.4 18.7
13:10 1017 30.03 846 24.98 2.6 36.6 48 -7.3 18.9
13:15 1017 30.03 846 24.98 2.5 36.5 49 -7.3 18.9
13:20 1017 30.03 846 24.98 3.1 37.6 45 -7.6 18.3
13:25 1017 30.03 846 24.98 3.7 38.6 44 -7.5 18.5
13:30 1017 30.03 846 24.98 3.8 38.8 44 -7.2 19
13:35 1017 30.03 846 24.98 3.7 38.7 45 -7.1 19.1
13:40 1017 30.03 846 24.98 3.8 38.8 45 -7 19.5
13:45 1017 30.03 846 24.98 3.5 38.4 45 -7.2 19
13:50 1017 30.03 846 24.98 2.8 37.1 49 -6.8 19.8
13:55 1017 30.03 846 24.98 2 35.6 51 -7.2 19.1
14:00 1017 30.03 846 24.98 2.2 36 49 -7.5 18.6
14:05 1017 30.03 846 24.98 2.4 36.4 49 -7.3 18.9
14:10 1017 30.03 846 24.98 1.9 35.3 52 -7 19.4
14:15 1017 30.03 846 24.98 2.4 36.4 48 -7.6 18.3
14:20 1017 30.03 846 24.98 3.6 38.5 44 -7.5 18.4
14:25 1017 30.03 846 24.98 3.5 38.3 46 -7.2 19.1
14:30 1017 30.03 846 24.98 2.9 37.2 45 -7.8 18
14:35 1017 30.03 846 24.98 2.7 36.8 48 -7.3 18.9
14:40 1017 30.03 846 24.98 2.4 36.3 49 -7.2 19.1
14:45 1017 30.03 846 24.98 1.3 34.3 54 -7 19.4
14:50 1017 30.03 846 24.98 1.1 33.9 53 -7.4 18.6
14:55 1017 30.03 846 24.98 0.9 33.7 53 -7.6 18.4
15:00 1017 30.03 846 24.98 0.9 33.6 53 -7.6 18.2
15:05 1017 30.03 846 24.98 1 33.7 53 -7.6 18.3
15:10 1017 30.03 846 24.98 0.9 33.7 53 -7.7 18.2
15:15 1017 30.03 846 24.98 0.9 33.7 52 -7.7 18.1
15:20 1017 30.03 846 24.98 0.8 33.5 53 -7.7 18.2
15:25 1017 30.03 846 24.98 0.9 33.6 53 -7.7 18.1
15:30 1017 30.03 846 24.98 0.7 33.3 53 -7.8 17.9
15:35 1017 30.03 846 24.98 0.7 33.2 53 -7.9 17.8
15:40 1017 30.03 846 24.98 0.7 33.2 53 -7.9 17.8
15:45 1017 30.03 846 24.98 0.6 33.1 53 -7.9 17.8
15:50 1017 30.03 846 24.98 0.5 32.8 53 -8.1 17.5
15:55 1017 30.03 846 24.98 0.4 32.7 53 -8.2 17.3
16:00 1017 30.03 846 24.98 0.5 32.9 53 -8 17.5
16:05 1017 30.03 846 24.98 0.5 32.9 54 -7.7 18.1
16:10 1017 30.03 846 24.98 0.3 32.5 53 -8.1 17.4
16:15 1017 30.03 846 24.98 0 32.1 54 -8.3 17.1
16:20 1017 30.03 846 24.98 0.1 32.2 53 -8.5 16.7
16:25 1017 30.03 846 24.98 0.2 32.3 53 -8.4 16.9
16:30 1017 30.03 846 24.98 0.5 32.9 52 -8.2 17.2
16:35 1017 30.03 846 24.98 0.3 32.6 52 -8.5 16.8
16:40 1017 30.03 847 25.01 -0.1 31.8 55 -8 17.5
16:45 1017 30.03 847 25.01 -1 30.1 58 -8.2 17.2
16:50 1017 30.03 847 25.01 -1.8 28.8 60 -8.6 16.5
16:55 1017 30.03 847 25.01 -1.9 28.5 62 -8.3 17
17:00 1017 30.03 847 25.01 -1.7 28.9 61 -8.3 17
17:05 1017 30.03 847 25.01 -1.8 28.8 62 -8.1 17.4
17:10 1018 30.06 847 25.01 -1.9 28.6 63 -8.1 17.5
17:15 1018 30.06 847 25.01 -2.1 28.2 65 -7.9 17.8
17:20 1018 30.06 847 25.01 -2.4 27.7 64 -8.2 17.2
17:25 1018 30.06 847 25.01 -2.6 27.3 66 -8 17.5
17:30 1018 30.06 847 25.01 -2.2 28 64 -8.2 17.3
17:35 1018 30.06 847 25.01 -1.9 28.5 61 -8.4 16.9
17:40 1018 30.06 847 25.01 -1.9 28.5 63 -8 17.5
17:45 1018 30.06 847 25.01 -2 28.5 64 -8 17.6
17:50 1018 30.06 847 25.01 -2 28.5 63 -8.1 17.5
17:55 1018 30.06 847 25.01 -1.9 28.6 62 -8.3 17.1
18:00 1018 30.06 847 25.01 -1.9 28.5 61 -8.4 16.9
18:05 1018 30.06 847 25.01 -2.2 28.1 64 -8.1 17.4
18:10 1018 30.06 847 25.01 -2.6 27.4 64 -8.4 16.9
18:15 1018 30.06 847 25.01 -2.8 27 65 -8.5 16.7
18:20 1018 30.06 847 25.01 -3.3 26 66 -8.8 16.2
18:25 1018 30.06 847 25.01 -3.4 25.9 65 -9 15.8
18:30 1018 30.06 847 25.01 -2.9 26.7 64 -8.9 16
18:35 1018 30.06 847 25.01 -3 26.6 67 -8.3 17.1
18:40 1018 30.06 847 25.01 -3.7 25.3 74 -7.8 18
18:45 1018 30.06 847 25.01 -4.2 24.4 74 -8.1 17.3
18:50 1018 30.06 847 25.01 -4.3 24.3 75 -8 17.6
18:55 1018 30.06 847 25.01 -4 24.8 73 -8.2 17.2
19:00 1018 30.06 847 25.01 -3.8 25.2 74 -7.9 17.8
19:05 1018 30.06 847 25.01 -3.8 25.2 72 -8.1 17.4
19:10 1018 30.06 847 25.01 -3.6 25.5 73 -7.9 17.9
19:15 1018 30.06 847 25.01 -3.6 25.6 72 -7.9 17.8
19:20 1018 30.06 847 25.01 -3.5 25.7 71 -8 17.6
19:25 1018 30.06 847 25.01 -3.6 25.6 71 -8 17.6
19:30 1018 30.06 847 25.01 -3.7 25.3 72 -8 17.6
19:35 1018 30.06 847 25.01 -3.9 25 73 -8 17.7
19:40 1018 30.06 847 25.01 -3.8 25.2 72 -8 17.5
19:45 1018 30.06 847 25.01 -3.8 25.2 72 -8.1 17.5
19:50 1018 30.06 848 25.04 -3.6 25.6 71 -8.1 17.5
19:55 1018 30.06 848 25.04 -3.4 25.9 70 -8.1 17.4
20:00 1018 30.06 848 25.04 -3.4 25.9 70 -8 17.6
20:05 1018 30.06 848 25.04 -3.3 26.1 70 -8 17.5
20:10 1018 30.06 848 25.04 -3.2 26.2 71 -7.9 17.9
20:15 1018 30.06 848 25.04 -3.2 26.3 71 -7.7 18.1
20:20 1019 30.09 848 25.04 -3.1 26.4 71 -7.7 18.1
20:25 1019 30.09 848 25.04 -3.2 26.2 71 -7.8 18
20:30 1019 30.09 848 25.04 -3.3 26.2 72 -7.7 18.2
20:35 1019 30.09 848 25.04 -3.2 26.2 71 -7.8 17.9
20:40 1019 30.09 848 25.04 -3.4 25.9 70 -8.1 17.4
20:45 1019 30.09 848 25.04 -4.4 24.1 75 -8.2 17.2
20:50 1019 30.09 848 25.04 -4.9 23.3 75 -8.6 16.6
20:55 1019 30.09 848 25.04 -4.7 23.5 74 -8.6 16.5
21:00 1019 30.09 849 25.07 -4.5 24 73 -8.5 16.6
21:05 1020 30.12 849 25.07 -4.3 24.2 73 -8.5 16.7
21:10 1020 30.12 849 25.07 -4.4 24.1 74 -8.3 17
21:15 1020 30.12 849 25.07 -4.5 23.9 75 -8.3 17.1
21:20 1020 30.12 849 25.07 -4.4 24 73 -8.6 16.5
21:25 1020 30.12 849 25.07 -4.3 24.2 73 -8.6 16.6
21:30 1020 30.12 850 25.1 -4.3 24.3 72 -8.6 16.5
21:35 1020 30.12 850 25.1 -4.3 24.2 73 -8.5 16.8
21:40 1021 30.15 850 25.1 -4.3 24.2 73 -8.5 16.8
21:45 1021 30.15 850 25.1 -4.5 23.9 74 -8.4 17
21:50 1021 30.15 850 25.1 -4.5 23.9 75 -8.4 16.9
21:55 1021 30.15 850 25.1 -4.6 23.7 76 -8.2 17.2
22:00 1021 30.15 850 25.1 -4.6 23.8 75 -8.3 17
22:05 1021 30.15 850 25.1 -4.6 23.8 76 -8.1 17.4
22:10 1021 30.15 850 25.1 -4.5 23.9 75 -8.2 17.2
22:15 1021 30.15 850 25.1 -4.3 24.3 74 -8.2 17.2
22:20 1021 30.15 850 25.1 -4 24.8 73 -8.1 17.4
22:25 1021 30.15 850 25.1 -3.8 25.2 72 -8.1 17.3
22:30 1021 30.15 850 25.1 -3.5 25.7 70 -8.2 17.2
22:35 1021 30.15 850 25.1 -3.4 25.9 68 -8.4 16.9
22:40 1021 30.15 850 25.1 -3.3 26.1 68 -8.4 16.8
22:45 1021 30.15 850 25.1 -3.3 26.1 67 -8.5 16.8
22:50 1021 30.15 850 25.1 -3.2 26.2 67 -8.5 16.7
22:55 1021 30.15 850 25.1 -3.2 26.2 66 -8.7 16.4
23:00 1021 30.15 850 25.1 -3.2 26.2 65 -8.9 16
23:05 1021 30.15 850 25.1 -3.1 26.4 65 -8.9 16
23:10 1021 30.15 850 25.1 -3.3 26.1 65 -8.9 16
23:15 1021 30.15 851 25.13 -3.5 25.8 65 -9.1 15.6
23:20 1022 30.18 851 25.13 -3.5 25.7 64 -9.3 15.2
23:25 1022 30.18 851 25.13 -3.6 25.6 66 -9.1 15.6
23:30 1022 30.18 851 25.13 -3.8 25.2 68 -8.9 16.1
23:35 1022 30.18 851 25.13 -3.9 25.1 66 -9.3 15.2
23:40 1022 30.18 851 25.13 -3.4 25.9 65 -9.1 15.6
23:45 1022 30.18 851 25.13 -3.2 26.2 63 -9.3 15.2
23:50 1022 30.18 851 25.13 -3 26.6 60 -9.7 14.5
23:55 1022 30.18 851 25.13 -2.8 27 59 -9.7 14.5
24:00 1022 30.18 851 25.13 -2.9 26.7 60 -9.7 14.6